sensor_id;sensor_type;location;lat;lon;timestamp;pressure;altitude;pressure_sealevel;temperature;humidity
36190;BME280;22232;50.914;13.858;2023-03-04T00:00:30;98190.31;;;-1.03;100.00
36190;BME280;22232;50.914;13.858;2023-03-04T00:02:58;98194.56;;;-1.02;100.00
36190;BME280;22232;50.914;13.858;2023-03-04T00:05:25;98195.53;;;-1.03;100.00
36190;BME280;22232;50.914;13.858;2023-03-04T00:07:53;98192.63;;;-1.00;100.00
36190;BME280;22232;50.914;13.858;2023-03-04T00:10:20;98192.47;;;-0.99;100.00
36190;BME280;22232;50.914;13.858;2023-03-04T00:12:48;98200.59;;;-1.02;100.00
36190;BME280;22232;50.914;13.858;2023-03-04T00:15:16;98196.13;;;-1.09;100.00
36190;BME280;22232;50.914;13.858;2023-03-04T00:17:43;98196.34;;;-1.03;100.00
36190;BME280;22232;50.914;13.858;2023-03-04T00:20:12;98194.03;;;-1.06;100.00
36190;BME280;22232;50.914;13.858;2023-03-04T00:22:40;98187.97;;;-1.06;100.00
36190;BME280;22232;50.914;13.858;2023-03-04T00:25:07;98188.78;;;-1.06;100.00
36190;BME280;22232;50.914;13.858;2023-03-04T00:27:35;98179.53;;;-1.00;100.00
36190;BME280;22232;50.914;13.858;2023-03-04T00:30:05;98174.94;;;-0.98;100.00
36190;BME280;22232;50.914;13.858;2023-03-04T00:32:32;98169.28;;;-0.94;100.00
36190;BME280;22232;50.914;13.858;2023-03-04T00:35:00;98180.09;;;-0.88;100.00
36190;BME280;22232;50.914;13.858;2023-03-04T00:37:28;98171.91;;;-0.94;100.00
36190;BME280;22232;50.914;13.858;2023-03-04T00:39:55;98172.13;;;-0.87;100.00
36190;BME280;22232;50.914;13.858;2023-03-04T00:42:23;98172.56;;;-0.92;100.00
36190;BME280;22232;50.914;13.858;2023-03-04T00:44:50;98170.19;;;-0.85;100.00
36190;BME280;22232;50.914;13.858;2023-03-04T00:47:18;98172.94;;;-0.86;100.00
36190;BME280;22232;50.914;13.858;2023-03-04T00:49:45;98171.81;;;-0.84;100.00
36190;BME280;22232;50.914;13.858;2023-03-04T00:52:13;98164.09;;;-0.85;100.00
36190;BME280;22232;50.914;13.858;2023-03-04T00:54:41;98162.97;;;-0.83;100.00
36190;BME280;22232;50.914;13.858;2023-03-04T00:57:08;98158.94;;;-0.77;100.00
36190;BME280;22232;50.914;13.858;2023-03-04T00:59:36;98161.34;;;-0.84;100.00
36190;BME280;22232;50.914;13.858;2023-03-04T01:02:03;98154.19;;;-0.82;100.00
36190;BME280;22232;50.914;13.858;2023-03-04T01:04:31;98150.97;;;-0.76;100.00
36190;BME280;22232;50.914;13.858;2023-03-04T01:06:59;98145.41;;;-0.73;100.00
36190;BME280;22232;50.914;13.858;2023-03-04T01:09:28;98139.03;;;-0.70;100.00
36190;BME280;22232;50.914;13.858;2023-03-04T01:11:56;98130.06;;;-0.67;100.00
36190;BME280;22232;50.914;13.858;2023-03-04T01:14:23;98137.09;;;-0.68;100.00
36190;BME280;22232;50.914;13.858;2023-03-04T01:16:51;98122.97;;;-0.75;100.00
36190;BME280;22232;50.914;13.858;2023-03-04T01:19:18;98125.94;;;-0.70;100.00
36190;BME280;22232;50.914;13.858;2023-03-04T01:21:46;98125.94;;;-0.70;100.00
36190;BME280;22232;50.914;13.858;2023-03-04T01:24:14;98121.25;;;-0.66;100.00
36190;BME280;22232;50.914;13.858;2023-03-04T01:26:42;98114.72;;;-0.62;100.00
36190;BME280;22232;50.914;13.858;2023-03-04T01:29:09;98110.09;;;-0.68;100.00
36190;BME280;22232;50.914;13.858;2023-03-04T01:31:37;98109.63;;;-0.64;100.00
36190;BME280;22232;50.914;13.858;2023-03-04T01:34:05;98111.28;;;-0.63;100.00
36190;BME280;22232;50.914;13.858;2023-03-04T01:36:35;98103.56;;;-0.64;100.00
36190;BME280;22232;50.914;13.858;2023-03-04T01:39:03;98100.31;;;-0.58;100.00
36190;BME280;22232;50.914;13.858;2023-03-04T01:41:31;98092.25;;;-0.65;100.00
36190;BME280;22232;50.914;13.858;2023-03-04T01:43:59;98090.31;;;-0.63;100.00
36190;BME280;22232;50.914;13.858;2023-03-04T01:46:29;98092.78;;;-0.61;100.00
36190;BME280;22232;50.914;13.858;2023-03-04T01:48:57;98082.59;;;-0.64;100.00
36190;BME280;22232;50.914;13.858;2023-03-04T01:51:25;98083.13;;;-0.61;100.00
36190;BME280;22232;50.914;13.858;2023-03-04T01:53:53;98083.13;;;-0.61;100.00
36190;BME280;22232;50.914;13.858;2023-03-04T01:56:23;98080.34;;;-0.59;100.00
36190;BME280;22232;50.914;13.858;2023-03-04T01:59:08;98078.75;;;-0.52;100.00
36190;BME280;22232;50.914;13.858;2023-03-04T02:01:37;98078.84;;;-0.62;100.00
36190;BME280;22232;50.914;13.858;2023-03-04T02:04:05;98074.91;;;-0.66;100.00
36190;BME280;22232;50.914;13.858;2023-03-04T02:06:35;98077.97;;;-0.71;100.00
36190;BME280;22232;50.914;13.858;2023-03-04T02:09:05;98072.13;;;-0.64;100.00
36190;BME280;22232;50.914;13.858;2023-03-04T02:11:33;98069.88;;;-0.59;100.00
36190;BME280;22232;50.914;13.858;2023-03-04T02:14:03;98072.66;;;-0.61;100.00
36190;BME280;22232;50.914;13.858;2023-03-04T02:16:31;98065.75;;;-0.62;100.00
36190;BME280;22232;50.914;13.858;2023-03-04T02:18:59;98058.38;;;-0.66;100.00
36190;BME280;22232;50.914;13.858;2023-03-04T02:21:30;98065.63;;;-0.60;100.00
36190;BME280;22232;50.914;13.858;2023-03-04T02:24:16;98069.88;;;-0.59;100.00
36190;BME280;22232;50.914;13.858;2023-03-04T02:26:46;98055.47;;;-0.55;100.00
36190;BME280;22232;50.914;13.858;2023-03-04T02:29:15;98055.16;;;-0.52;100.00
36190;BME280;22232;50.914;13.858;2023-03-04T02:31:49;98056.66;;;-0.50;100.00
36190;BME280;22232;50.914;13.858;2023-03-04T02:34:32;98051.59;;;-0.51;100.00
36190;BME280;22232;50.914;13.858;2023-03-04T02:37:01;98045.53;;;-0.52;100.00
36190;BME280;22232;50.914;13.858;2023-03-04T02:39:38;98050.31;;;-0.47;100.00
36190;BME280;22232;50.914;13.858;2023-03-04T02:42:06;98046.88;;;-0.48;100.00
36190;BME280;22232;50.914;13.858;2023-03-04T02:44:37;98037.72;;;-0.43;100.00
36190;BME280;22232;50.914;13.858;2023-03-04T02:47:07;98041.13;;;-0.51;100.00
36190;BME280;22232;50.914;13.858;2023-03-04T02:49:37;98041.44;;;-0.46;100.00
36190;BME280;22232;50.914;13.858;2023-03-04T02:52:14;98035.88;;;-0.51;100.00
36190;BME280;22232;50.914;13.858;2023-03-04T02:54:44;98035.56;;;-0.48;100.00
36190;BME280;22232;50.914;13.858;2023-03-04T02:57:12;98032.28;;;-0.50;100.00
36190;BME280;22232;50.914;13.858;2023-03-04T02:59:44;98030.13;;;-0.55;100.00
36190;BME280;22232;50.914;13.858;2023-03-04T03:02:16;98021.97;;;-0.52;100.00
36190;BME280;22232;50.914;13.858;2023-03-04T03:04:44;98021.78;;;-0.50;100.00
36190;BME280;22232;50.914;13.858;2023-03-04T03:07:15;98018.50;;;-0.52;100.00
36190;BME280;22232;50.914;13.858;2023-03-04T03:09:42;98018.34;;;-0.51;100.00
36190;BME280;22232;50.914;13.858;2023-03-04T03:12:10;98015.25;;;-0.46;100.00
36190;BME280;22232;50.914;13.858;2023-03-04T03:14:38;98014.81;;;-0.41;100.00
36190;BME280;22232;50.914;13.858;2023-03-04T03:17:07;98010.38;;;-0.41;100.00
36190;BME280;22232;50.914;13.858;2023-03-04T03:19:35;98004.47;;;-0.43;100.00
36190;BME280;22232;50.914;13.858;2023-03-04T03:22:05;98008.25;;;-0.45;100.00
36190;BME280;22232;50.914;13.858;2023-03-04T03:24:33;98008.06;;;-0.44;100.00
36190;BME280;22232;50.914;13.858;2023-03-04T03:27:00;98009.25;;;-0.38;100.00
36190;BME280;22232;50.914;13.858;2023-03-04T03:29:28;97997.94;;;-0.39;100.00
36190;BME280;22232;50.914;13.858;2023-03-04T03:31:55;98005.94;;;-0.40;100.00
36190;BME280;22232;50.914;13.858;2023-03-04T03:34:23;98002.38;;;-0.39;100.00
36190;BME280;22232;50.914;13.858;2023-03-04T03:36:51;98002.50;;;-0.41;100.00
36190;BME280;22232;50.914;13.858;2023-03-04T03:39:18;98006.78;;;-0.40;100.00
36190;BME280;22232;50.914;13.858;2023-03-04T03:41:46;97999.56;;;-0.38;100.00
36190;BME280;22232;50.914;13.858;2023-03-04T03:44:13;98001.22;;;-0.37;100.00
36190;BME280;22232;50.914;13.858;2023-03-04T03:46:41;97999.56;;;-0.38;100.00
36190;BME280;22232;50.914;13.858;2023-03-04T03:49:08;98011.88;;;-0.38;100.00
36190;BME280;22232;50.914;13.858;2023-03-04T03:51:36;97992.03;;;-0.41;100.00
36190;BME280;22232;50.914;13.858;2023-03-04T03:54:03;98001.53;;;-0.40;100.00
36190;BME280;22232;50.914;13.858;2023-03-04T03:56:31;98005.31;;;-0.42;100.00
36190;BME280;22232;50.914;13.858;2023-03-04T03:58:58;98000.88;;;-0.42;100.00
36190;BME280;22232;50.914;13.858;2023-03-04T04:01:26;97988.78;;;-0.35;100.00
36190;BME280;22232;50.914;13.858;2023-03-04T04:03:53;97993.88;;;-0.33;100.00
36190;BME280;22232;50.914;13.858;2023-03-04T04:06:21;97988.59;;;-0.41;100.00
36190;BME280;22232;50.914;13.858;2023-03-04T04:08:48;97993.66;;;-0.40;100.00
36190;BME280;22232;50.914;13.858;2023-03-04T04:11:16;97988.44;;;-0.40;100.00
36190;BME280;22232;50.914;13.858;2023-03-04T04:13:44;97996.59;;;-0.43;100.00
36190;BME280;22232;50.914;13.858;2023-03-04T04:16:11;97996.09;;;-0.47;100.00
36190;BME280;22232;50.914;13.858;2023-03-04T04:18:39;97995.59;;;-0.50;100.00
36190;BME280;22232;50.914;13.858;2023-03-04T04:21:07;97997.09;;;-0.48;100.00
36190;BME280;22232;50.914;13.858;2023-03-04T04:23:34;98004.31;;;-0.41;100.00
36190;BME280;22232;50.914;13.858;2023-03-04T04:26:02;97992.84;;;-0.40;100.00
36190;BME280;22232;50.914;13.858;2023-03-04T04:28:30;98000.88;;;-0.42;100.00
36190;BME280;22232;50.914;13.858;2023-03-04T04:30:57;98005.44;;;-0.44;100.00
36190;BME280;22232;50.914;13.858;2023-03-04T04:33:25;97999.06;;;-0.41;100.00
36190;BME280;22232;50.914;13.858;2023-03-04T04:35:53;98003.50;;;-0.42;100.00
36190;BME280;22232;50.914;13.858;2023-03-04T04:38:20;98006.25;;;-0.43;100.00
36190;BME280;22232;50.914;13.858;2023-03-04T04:40:48;98003.50;;;-0.42;100.00
36190;BME280;22232;50.914;13.858;2023-03-04T04:43:15;97996.09;;;-0.47;100.00
36190;BME280;22232;50.914;13.858;2023-03-04T04:45:43;97992.50;;;-0.45;100.00
36190;BME280;22232;50.914;13.858;2023-03-04T04:48:10;97981.88;;;-0.44;100.00
36190;BME280;22232;50.914;13.858;2023-03-04T04:50:38;97982.22;;;-0.39;100.00
36190;BME280;22232;50.914;13.858;2023-03-04T04:53:05;97986.47;;;-0.38;100.00
36190;BME280;22232;50.914;13.858;2023-03-04T04:55:33;97990.91;;;-0.38;100.00
36190;BME280;22232;50.914;13.858;2023-03-04T04:58:01;97986.78;;;-0.41;100.00
36190;BME280;22232;50.914;13.858;2023-03-04T05:00:28;97975.00;;;-0.37;100.00
36190;BME280;22232;50.914;13.858;2023-03-04T05:02:56;97986.34;;;-0.36;100.00
36190;BME280;22232;50.914;13.858;2023-03-04T05:05:23;97993.53;;;-0.38;100.00
36190;BME280;22232;50.914;13.858;2023-03-04T05:07:51;97982.88;;;-0.37;100.00
36190;BME280;22232;50.914;13.858;2023-03-04T05:10:18;97987.97;;;-0.35;100.00
36190;BME280;22232;50.914;13.858;2023-03-04T05:12:46;97981.91;;;-0.36;100.00
36190;BME280;22232;50.914;13.858;2023-03-04T05:15:14;97982.88;;;-0.37;100.00
36190;BME280;22232;50.914;13.858;2023-03-04T05:17:42;97970.63;;;-0.36;100.00
36190;BME280;22232;50.914;13.858;2023-03-04T05:20:10;97972.75;;;-0.32;100.00
36190;BME280;22232;50.914;13.858;2023-03-04T05:22:37;97970.13;;;-0.32;100.00
36190;BME280;22232;50.914;13.858;2023-03-04T05:25:05;97978.81;;;-0.31;100.00
36190;BME280;22232;50.914;13.858;2023-03-04T05:27:34;97987.47;;;-0.31;100.00
36190;BME280;22232;50.914;13.858;2023-03-04T05:30:01;97980.97;;;-0.27;100.00
36190;BME280;22232;50.914;13.858;2023-03-04T05:32:29;97982.56;;;-0.34;100.00
36190;BME280;22232;50.914;13.858;2023-03-04T05:39:03;97976.03;;;-0.30;100.00
36190;BME280;22232;50.914;13.858;2023-03-04T05:41:30;97982.09;;;-0.29;100.00
36190;BME280;22232;50.914;13.858;2023-03-04T05:43:58;97989.16;;;-0.21;100.00
36190;BME280;22232;50.914;13.858;2023-03-04T05:46:25;97985.91;;;-0.24;100.00
36190;BME280;22232;50.914;13.858;2023-03-04T05:48:54;97977.03;;;-0.22;100.00
36190;BME280;22232;50.914;13.858;2023-03-04T05:51:21;97983.91;;;-0.21;100.00
36190;BME280;22232;50.914;13.858;2023-03-04T05:53:49;97978.03;;;-0.15;100.00
36190;BME280;22232;50.914;13.858;2023-03-04T05:56:18;97976.41;;;-0.16;100.00
36190;BME280;22232;50.914;13.858;2023-03-04T05:58:46;97976.72;;;-0.19;100.00
36190;BME280;22232;50.914;13.858;2023-03-04T06:01:14;97974.91;;;-0.19;100.00
36190;BME280;22232;50.914;13.858;2023-03-04T06:03:41;97974.97;;;-0.11;100.00
36190;BME280;22232;50.914;13.858;2023-03-04T06:06:15;97975.44;;;-0.07;100.00
36190;BME280;22232;50.914;13.858;2023-03-04T06:08:43;97972.84;;;-0.07;100.00
36190;BME280;22232;50.914;13.858;2023-03-04T06:11:10;97980.06;;;-0.01;100.00
36190;BME280;22232;50.914;13.858;2023-03-04T06:13:38;97968.63;;;0.00;100.00
36190;BME280;22232;50.914;13.858;2023-03-04T06:16:06;97972.22;;;0.07;100.00
36190;BME280;22232;50.914;13.858;2023-03-04T06:18:34;97968.44;;;0.02;100.00
36190;BME280;22232;50.914;13.858;2023-03-04T06:21:02;97967.97;;;0.06;100.00
36190;BME280;22232;50.914;13.858;2023-03-04T06:23:31;97966.00;;;0.08;100.00
36190;BME280;22232;50.914;13.858;2023-03-04T06:25:59;97967.13;;;0.06;100.00
36190;BME280;22232;50.914;13.858;2023-03-04T06:28:28;97960.75;;;0.08;100.00
36190;BME280;22232;50.914;13.858;2023-03-04T06:30:56;97972.06;;;0.09;100.00
36190;BME280;22232;50.914;13.858;2023-03-04T06:33:24;97961.25;;;0.12;100.00
36190;BME280;22232;50.914;13.858;2023-03-04T06:35:54;97969.78;;;0.14;100.00
36190;BME280;22232;50.914;13.858;2023-03-04T06:38:22;97968.97;;;0.13;100.00
36190;BME280;22232;50.914;13.858;2023-03-04T06:40:50;97957.47;;;0.14;100.00
36190;BME280;22232;50.914;13.858;2023-03-04T06:43:18;97961.09;;;0.13;100.00
36190;BME280;22232;50.914;13.858;2023-03-04T06:45:46;97966.69;;;0.18;100.00
36190;BME280;22232;50.914;13.858;2023-03-04T06:48:13;97970.94;;;0.19;100.00
36190;BME280;22232;50.914;13.858;2023-03-04T06:50:41;97963.72;;;0.13;100.00
36190;BME280;22232;50.914;13.858;2023-03-04T06:53:09;97966.03;;;0.16;100.00
36190;BME280;22232;50.914;13.858;2023-03-04T06:55:36;97966.03;;;0.25;100.00
36190;BME280;22232;50.914;13.858;2023-03-04T06:58:03;97960.78;;;0.33;100.00
36190;BME280;22232;50.914;13.858;2023-03-04T07:00:31;97957.22;;;0.34;100.00
36190;BME280;22232;50.914;13.858;2023-03-04T07:03:00;97960.78;;;0.33;100.00
36190;BME280;22232;50.914;13.858;2023-03-04T07:05:28;97958.19;;;0.41;100.00
36190;BME280;22232;50.914;13.858;2023-03-04T07:07:55;97967.88;;;0.40;100.00
36190;BME280;22232;50.914;13.858;2023-03-04T07:10:23;97959.69;;;0.43;100.00
36190;BME280;22232;50.914;13.858;2023-03-04T07:12:50;97957.53;;;0.47;100.00
36190;BME280;22232;50.914;13.858;2023-03-04T07:15:18;97960.19;;;0.55;100.00
36190;BME280;22232;50.914;13.858;2023-03-04T07:17:45;97959.00;;;0.58;100.00
36190;BME280;22232;50.914;13.858;2023-03-04T07:20:13;97960.66;;;0.59;100.00
36190;BME280;22232;50.914;13.858;2023-03-04T07:22:40;97948.03;;;0.62;100.00
36190;BME280;22232;50.914;13.858;2023-03-04T07:25:08;97963.44;;;0.57;100.00
36190;BME280;22232;50.914;13.858;2023-03-04T07:27:35;97953.63;;;0.67;100.00
36190;BME280;22232;50.914;13.858;2023-03-04T07:30:05;97959.34;;;0.71;100.00
36190;BME280;22232;50.914;13.858;2023-03-04T07:32:33;97956.72;;;0.71;100.00
36190;BME280;22232;50.914;13.858;2023-03-04T07:35:02;97953.59;;;0.76;100.00
36190;BME280;22232;50.914;13.858;2023-03-04T07:37:30;97957.06;;;0.76;100.00
36190;BME280;22232;50.914;13.858;2023-03-04T07:39:58;97952.63;;;0.77;100.00
36190;BME280;22232;50.914;13.858;2023-03-04T07:42:25;97951.31;;;0.73;100.00
36190;BME280;22232;50.914;13.858;2023-03-04T07:44:58;97953.44;;;0.77;100.00
36190;BME280;22232;50.914;13.858;2023-03-04T07:47:27;97953.94;;;0.73;100.00
36190;BME280;22232;50.914;13.858;2023-03-04T07:49:55;97959.84;;;0.83;100.00
36190;BME280;22232;50.914;13.858;2023-03-04T07:52:23;97955.91;;;0.79;100.00
36190;BME280;22232;50.914;13.858;2023-03-04T07:54:50;97955.06;;;0.78;100.00
36190;BME280;22232;50.914;13.858;2023-03-04T07:57:18;97955.56;;;0.82;100.00
36190;BME280;22232;50.914;13.858;2023-03-04T07:59:45;97956.41;;;0.82;100.00
36190;BME280;22232;50.914;13.858;2023-03-04T08:02:13;97943.44;;;0.89;100.00
36190;BME280;22232;50.914;13.858;2023-03-04T08:04:41;97944.41;;;0.88;100.00
36190;BME280;22232;50.914;13.858;2023-03-04T08:07:09;97945.53;;;0.94;100.00
36190;BME280;22232;50.914;13.858;2023-03-04T08:09:36;97943.25;;;0.90;100.00
36190;BME280;22232;50.914;13.858;2023-03-04T08:12:05;97945.38;;;1.03;100.00
36190;BME280;22232;50.914;13.858;2023-03-04T08:14:32;97941.25;;;1.09;100.00
36190;BME280;22232;50.914;13.858;2023-03-04T08:17:00;97939.56;;;1.24;100.00
36190;BME280;22232;50.914;13.858;2023-03-04T08:19:28;97938.28;;;1.28;100.00
36190;BME280;22232;50.914;13.858;2023-03-04T08:21:55;97938.75;;;1.24;100.00
36190;BME280;22232;50.914;13.858;2023-03-04T08:24:23;97933.63;;;1.38;100.00
36190;BME280;22232;50.914;13.858;2023-03-04T08:26:50;97936.25;;;1.47;100.00
36190;BME280;22232;50.914;13.858;2023-03-04T08:29:20;97936.53;;;1.52;100.00
36190;BME280;22232;50.914;13.858;2023-03-04T08:31:49;97926.19;;;1.58;100.00
36190;BME280;22232;50.914;13.858;2023-03-04T08:34:19;97933.81;;;1.76;100.00
36190;BME280;22232;50.914;13.858;2023-03-04T08:36:47;97925.72;;;1.86;100.00
36190;BME280;22232;50.914;13.858;2023-03-04T08:39:16;97938.41;;;2.14;100.00
36190;BME280;22232;50.914;13.858;2023-03-04T08:41:44;97930.75;;;2.27;100.00
36190;BME280;22232;50.914;13.858;2023-03-04T08:44:13;97925.94;;;2.30;100.00
36190;BME280;22232;50.914;13.858;2023-03-04T08:46:42;97929.72;;;2.28;100.00
36190;BME280;22232;50.914;13.858;2023-03-04T08:49:12;97915.50;;;2.22;100.00
36190;BME280;22232;50.914;13.858;2023-03-04T08:51:40;97921.56;;;2.23;100.00
36190;BME280;22232;50.914;13.858;2023-03-04T08:54:09;97926.28;;;2.27;100.00
36190;BME280;22232;50.914;13.858;2023-03-04T08:56:36;97926.69;;;2.39;100.00
36190;BME280;22232;50.914;13.858;2023-03-04T08:59:04;97920.22;;;2.27;100.00
36190;BME280;22232;50.914;13.858;2023-03-04T09:01:31;97931.09;;;2.24;100.00
36190;BME280;22232;50.914;13.858;2023-03-04T09:04:02;97933.38;;;2.27;100.00
36190;BME280;22232;50.914;13.858;2023-03-04T09:06:29;97929.22;;;2.33;100.00
36190;BME280;22232;50.914;13.858;2023-03-04T09:08:57;97914.47;;;2.46;100.00
36190;BME280;22232;50.914;13.858;2023-03-04T09:11:25;97920.84;;;2.52;100.00
36190;BME280;22232;50.914;13.858;2023-03-04T09:13:52;97920.28;;;2.80;100.00
36190;BME280;22232;50.914;13.858;2023-03-04T09:16:20;97914.28;;;2.71;100.00
36190;BME280;22232;50.914;13.858;2023-03-04T09:18:48;97919.75;;;2.84;100.00
36190;BME280;22232;50.914;13.858;2023-03-04T09:21:15;97919.22;;;2.74;100.00
36190;BME280;22232;50.914;13.858;2023-03-04T09:23:43;97928.78;;;2.67;100.00
36190;BME280;22232;50.914;13.858;2023-03-04T09:26:15;97924.88;;;2.63;100.00
36190;BME280;22232;50.914;13.858;2023-03-04T09:28:43;97926.16;;;2.67;100.00
36190;BME280;22232;50.914;13.858;2023-03-04T09:31:12;97919.38;;;2.72;100.00
36190;BME280;22232;50.914;13.858;2023-03-04T09:33:40;97924.75;;;2.79;100.00
36190;BME280;22232;50.914;13.858;2023-03-04T09:36:11;97919.81;;;2.76;100.00
36190;BME280;22232;50.914;13.858;2023-03-04T09:38:39;97924.53;;;2.66;100.00
36190;BME280;22232;50.914;13.858;2023-03-04T09:41:09;97922.66;;;2.74;100.00
36190;BME280;22232;50.914;13.858;2023-03-04T09:43:40;97918.19;;;2.75;100.00
36190;BME280;22232;50.914;13.858;2023-03-04T09:46:12;97919.81;;;2.76;100.00
36190;BME280;22232;50.914;13.858;2023-03-04T09:48:51;97916.97;;;3.01;100.00
36190;BME280;22232;50.914;13.858;2023-03-04T09:54:35;97893.72;;;3.34;100.00
36190;BME280;22232;50.914;13.858;2023-03-04T10:00:21;97893.34;;;3.22;100.00
36190;BME280;22232;50.914;13.858;2023-03-04T10:05:52;97894.00;;;3.24;100.00
36190;BME280;22232;50.914;13.858;2023-03-04T10:10:54;97881.00;;;3.22;100.00
36190;BME280;22232;50.914;13.858;2023-03-04T10:13:30;97883.81;;;3.36;100.00
36190;BME280;22232;50.914;13.858;2023-03-04T10:16:01;97882.34;;;3.48;100.00
36190;BME280;22232;50.914;13.858;2023-03-04T10:18:40;97878.28;;;3.31;100.00
36190;BME280;22232;50.914;13.858;2023-03-04T10:21:25;97878.41;;;3.59;100.00
36190;BME280;22232;50.914;13.858;2023-03-04T10:24:00;97880.97;;;3.67;100.00
36190;BME280;22232;50.914;13.858;2023-03-04T10:26:29;97881.53;;;3.62;100.00
36190;BME280;22232;50.914;13.858;2023-03-04T10:28:59;97876.56;;;3.74;100.00
36190;BME280;22232;50.914;13.858;2023-03-04T10:31:35;97884.78;;;4.01;100.00
36190;BME280;22232;50.914;13.858;2023-03-04T10:34:03;97873.63;;;4.20;100.00
36190;BME280;22232;50.914;13.858;2023-03-04T10:36:38;97866.97;;;4.03;100.00
36190;BME280;22232;50.914;13.858;2023-03-04T10:39:29;97862.75;;;4.08;100.00
36190;BME280;22232;50.914;13.858;2023-03-04T10:42:22;97859.47;;;4.06;100.00
36190;BME280;22232;50.914;13.858;2023-03-04T10:44:56;97863.84;;;4.14;100.00
36190;BME280;22232;50.914;13.858;2023-03-04T10:47:26;97864.31;;;4.03;100.00
36190;BME280;22232;50.914;13.858;2023-03-04T10:49:57;97853.81;;;4.09;100.00
36190;BME280;22232;50.914;13.858;2023-03-04T10:52:48;97868.84;;;4.09;100.00
36190;BME280;22232;50.914;13.858;2023-03-04T10:55:23;97861.25;;;3.99;100.00
36190;BME280;22232;50.914;13.858;2023-03-04T10:58:03;97864.88;;;3.98;100.00
36190;BME280;22232;50.914;13.858;2023-03-04T11:00:36;97860.53;;;3.90;100.00
36190;BME280;22232;50.914;13.858;2023-03-04T11:06:18;97854.13;;;4.00;100.00
36190;BME280;22232;50.914;13.858;2023-03-04T11:08:57;97856.78;;;4.21;100.00
36190;BME280;22232;50.914;13.858;2023-03-04T11:11:37;97863.00;;;4.13;100.00
36190;BME280;22232;50.914;13.858;2023-03-04T11:14:23;97856.91;;;4.13;100.00
36190;BME280;22232;50.914;13.858;2023-03-04T11:16:59;97854.78;;;4.02;100.00
36190;BME280;22232;50.914;13.858;2023-03-04T11:19:30;97856.88;;;3.91;100.00
36190;BME280;22232;50.914;13.858;2023-03-04T11:22:02;97851.19;;;3.73;100.00
36190;BME280;22232;50.914;13.858;2023-03-04T11:24:33;97855.41;;;3.67;100.00
36190;BME280;22232;50.914;13.858;2023-03-04T11:27:05;97860.97;;;3.58;100.00
36190;BME280;22232;50.914;13.858;2023-03-04T11:32:42;97859.72;;;3.24;100.00
36190;BME280;22232;50.914;13.858;2023-03-04T11:35:30;97853.94;;;3.29;100.00
36190;BME280;22232;50.914;13.858;2023-03-04T11:38:15;97853.88;;;3.43;100.00
36190;BME280;22232;50.914;13.858;2023-03-04T11:41:08;97854.81;;;3.36;100.00
36190;BME280;22232;50.914;13.858;2023-03-04T11:43:40;97844.81;;;3.31;100.00
36190;BME280;22232;50.914;13.858;2023-03-04T12:00:36;97834.19;;;3.39;100.00
36190;BME280;22232;50.914;13.858;2023-03-04T12:06:03;97820.47;;;3.44;100.00
36190;BME280;22232;50.914;13.858;2023-03-04T12:08:48;97824.28;;;3.41;100.00
36190;BME280;22232;50.914;13.858;2023-03-04T12:11:32;97829.47;;;3.35;100.00
36190;BME280;22232;50.914;13.858;2023-03-04T12:14:33;97818.00;;;3.42;100.00
36190;BME280;22232;50.914;13.858;2023-03-04T12:22:30;97816.59;;;3.47;100.00
36190;BME280;22232;50.914;13.858;2023-03-04T12:28:10;97812.06;;;3.40;100.00
36190;BME280;22232;50.914;13.858;2023-03-04T12:36:20;97798.84;;;3.55;100.00
36190;BME280;22232;50.914;13.858;2023-03-04T12:44:16;97807.28;;;3.44;100.00
36190;BME280;22232;50.914;13.858;2023-03-04T12:50:24;97787.97;;;3.43;100.00
36190;BME280;22232;50.914;13.858;2023-03-04T12:53:08;97787.94;;;3.58;100.00
36190;BME280;22232;50.914;13.858;2023-03-04T12:55:43;97786.88;;;3.74;100.00
36190;BME280;22232;50.914;13.858;2023-03-04T12:58:15;97777.22;;;3.81;100.00
36190;BME280;22232;50.914;13.858;2023-03-04T13:00:52;97780.69;;;3.82;100.00
36190;BME280;22232;50.914;13.858;2023-03-04T13:03:40;97784.25;;;3.74;100.00
36190;BME280;22232;50.914;13.858;2023-03-04T13:08:53;97778.28;;;3.65;100.00
36190;BME280;22232;50.914;13.858;2023-03-04T13:14:22;97769.38;;;3.66;100.00
36190;BME280;22232;50.914;13.858;2023-03-04T13:16:58;97767.38;;;3.68;100.00
36190;BME280;22232;50.914;13.858;2023-03-04T13:19:47;97769.91;;;3.62;100.00
36190;BME280;22232;50.914;13.858;2023-03-04T13:38:23;97755.59;;;3.50;100.00
36190;BME280;22232;50.914;13.858;2023-03-04T13:43:58;97759.75;;;3.59;100.00
36190;BME280;22232;50.914;13.858;2023-03-04T13:48:58;97749.13;;;3.52;100.00
36190;BME280;22232;50.914;13.858;2023-03-04T13:51:34;97752.72;;;3.66;100.00
36190;BME280;22232;50.914;13.858;2023-03-04T13:54:19;97742.69;;;3.76;100.00
36190;BME280;22232;50.914;13.858;2023-03-04T13:59:31;97737.03;;;3.79;100.00
36190;BME280;22232;50.914;13.858;2023-03-04T14:02:02;97727.66;;;3.77;100.00
36190;BME280;22232;50.914;13.858;2023-03-04T14:04:35;97739.59;;;3.94;100.00
36190;BME280;22232;50.914;13.858;2023-03-04T14:07:27;97737.22;;;3.99;100.00
36190;BME280;22232;50.914;13.858;2023-03-04T14:09:59;97728.09;;;4.02;100.00
36190;BME280;22232;50.914;13.858;2023-03-04T14:12:30;97734.75;;;3.98;100.00
36190;BME280;22232;50.914;13.858;2023-03-04T14:17:46;97718.88;;;3.91;100.00
36190;BME280;22232;50.914;13.858;2023-03-04T14:20:32;97724.91;;;3.85;100.00
36190;BME280;22232;50.914;13.858;2023-03-04T14:23:02;97726.22;;;3.96;100.00
36190;BME280;22232;50.914;13.858;2023-03-04T14:25:32;97734.88;;;3.89;100.00
36190;BME280;22232;50.914;13.858;2023-03-04T14:28:13;97718.94;;;3.76;100.00
36190;BME280;22232;50.914;13.858;2023-03-04T14:30:50;97728.84;;;3.74;100.00
36190;BME280;22232;50.914;13.858;2023-03-04T14:33:22;97730.19;;;3.85;100.00
36190;BME280;22232;50.914;13.858;2023-03-04T14:35:53;97724.19;;;3.98;100.00